Terminal Aerodrome Forecast
Issued by NWS

Home | Current Version | Previous Version | Text Only | Print | Product List | Glossary On
Versions: 1 2 3 4 5 6 7 8 9 10 11 12 13 14 15 16 17 18 19 20 21 22 23 24
000
FTUS42 KGSP 170029 AAA
TAFAND
TAF AMD
KAND 170029Z 1700/1724 10005KT P6SM OVC008
     FM170300 11004KT 4SM BR OVC007
     FM170800 14003KT 1SM BR OVC003
     FM171600 22008KT P6SM OVC003
     FM171900 23009KT P6SM BKN015
     FM172100 23008KT P6SM BKN030=

USA.gov is the U.S. government's official web portal to all federal, state and local government web resources and services.